sensor_id;sensor_type;location;lat;lon;timestamp;P1;durP1;ratioP1;P2;durP2;ratioP2
69937;SDS011;57248;47.320;15.998;2023-05-07T00:00:34;9.50;;;5.03;;
69937;SDS011;57248;47.320;15.998;2023-05-07T00:03:07;11.88;;;5.32;;
69937;SDS011;57248;47.320;15.998;2023-05-07T00:05:40;9.85;;;5.20;;
69937;SDS011;57248;47.320;15.998;2023-05-07T00:08:20;9.10;;;4.82;;
69937;SDS011;57248;47.320;15.998;2023-05-07T00:10:52;10.23;;;5.03;;
69937;SDS011;57248;47.320;15.998;2023-05-07T00:13:31;8.50;;;4.73;;
69937;SDS011;57248;47.320;15.998;2023-05-07T00:16:06;8.80;;;4.78;;
69937;SDS011;57248;47.320;15.998;2023-05-07T00:18:38;8.63;;;4.68;;
69937;SDS011;57248;47.320;15.998;2023-05-07T00:21:10;10.27;;;5.35;;
69937;SDS011;57248;47.320;15.998;2023-05-07T00:23:42;8.10;;;4.53;;
69937;SDS011;57248;47.320;15.998;2023-05-07T00:26:14;9.03;;;5.03;;
69937;SDS011;57248;47.320;15.998;2023-05-07T00:28:48;8.23;;;4.68;;
69937;SDS011;57248;47.320;15.998;2023-05-07T00:31:20;9.68;;;5.20;;
69937;SDS011;57248;47.320;15.998;2023-05-07T00:33:52;9.18;;;5.10;;
69937;SDS011;57248;47.320;15.998;2023-05-07T00:36:24;8.00;;;4.80;;
69937;SDS011;57248;47.320;15.998;2023-05-07T00:38:58;9.23;;;5.10;;
69937;SDS011;57248;47.320;15.998;2023-05-07T00:41:32;8.88;;;5.00;;
69937;SDS011;57248;47.320;15.998;2023-05-07T00:44:04;11.40;;;5.25;;
69937;SDS011;57248;47.320;15.998;2023-05-07T00:46:36;9.75;;;5.18;;
69937;SDS011;57248;47.320;15.998;2023-05-07T00:49:09;9.98;;;4.93;;
69937;SDS011;57248;47.320;15.998;2023-05-07T00:51:41;8.73;;;4.87;;
69937;SDS011;57248;47.320;15.998;2023-05-07T00:54:13;8.85;;;4.85;;
69937;SDS011;57248;47.320;15.998;2023-05-07T00:56:39;9.52;;;5.03;;
69937;SDS011;57248;47.320;15.998;2023-05-07T00:59:11;8.70;;;4.83;;
69937;SDS011;57248;47.320;15.998;2023-05-07T01:01:43;10.15;;;4.90;;
69937;SDS011;57248;47.320;15.998;2023-05-07T01:04:08;9.73;;;5.03;;
69937;SDS011;57248;47.320;15.998;2023-05-07T01:06:41;9.82;;;4.90;;
69937;SDS011;57248;47.320;15.998;2023-05-07T01:09:13;10.88;;;5.18;;
69937;SDS011;57248;47.320;15.998;2023-05-07T01:11:47;9.98;;;5.22;;
69937;SDS011;57248;47.320;15.998;2023-05-07T01:14:20;9.80;;;5.13;;
69937;SDS011;57248;47.320;15.998;2023-05-07T01:16:59;9.17;;;4.80;;
69937;SDS011;57248;47.320;15.998;2023-05-07T01:19:31;10.18;;;5.53;;
69937;SDS011;57248;47.320;15.998;2023-05-07T01:22:06;9.82;;;5.10;;
69937;SDS011;57248;47.320;15.998;2023-05-07T01:24:48;8.23;;;4.32;;
69937;SDS011;57248;47.320;15.998;2023-05-07T01:27:35;9.90;;;5.05;;
69937;SDS011;57248;47.320;15.998;2023-05-07T01:30:08;11.03;;;4.90;;
69937;SDS011;57248;47.320;15.998;2023-05-07T01:32:48;9.27;;;4.88;;
69937;SDS011;57248;47.320;15.998;2023-05-07T01:35:24;8.38;;;4.40;;
69937;SDS011;57248;47.320;15.998;2023-05-07T01:38:03;8.43;;;4.55;;
69937;SDS011;57248;47.320;15.998;2023-05-07T01:40:37;8.70;;;4.10;;
69937;SDS011;57248;47.320;15.998;2023-05-07T01:43:09;9.67;;;4.87;;
69937;SDS011;57248;47.320;15.998;2023-05-07T01:45:42;9.02;;;4.80;;
69937;SDS011;57248;47.320;15.998;2023-05-07T01:48:16;10.10;;;4.57;;
69937;SDS011;57248;47.320;15.998;2023-05-07T01:50:50;7.80;;;3.97;;
69937;SDS011;57248;47.320;15.998;2023-05-07T01:53:23;8.93;;;4.43;;
69937;SDS011;57248;47.320;15.998;2023-05-07T01:55:55;7.80;;;4.10;;
69937;SDS011;57248;47.320;15.998;2023-05-07T01:58:29;7.78;;;3.83;;
69937;SDS011;57248;47.320;15.998;2023-05-07T02:00:55;7.20;;;4.00;;
69937;SDS011;57248;47.320;15.998;2023-05-07T02:03:28;7.93;;;4.07;;
69937;SDS011;57248;47.320;15.998;2023-05-07T02:06:08;7.20;;;3.85;;
69937;SDS011;57248;47.320;15.998;2023-05-07T02:08:40;7.65;;;4.03;;
69937;SDS011;57248;47.320;15.998;2023-05-07T02:11:13;7.13;;;3.53;;
69937;SDS011;57248;47.320;15.998;2023-05-07T02:13:52;8.18;;;4.38;;
69937;SDS011;57248;47.320;15.998;2023-05-07T02:16:24;7.80;;;4.47;;
69937;SDS011;57248;47.320;15.998;2023-05-07T02:18:56;8.32;;;4.60;;
69937;SDS011;57248;47.320;15.998;2023-05-07T02:21:29;7.25;;;4.30;;
69937;SDS011;57248;47.320;15.998;2023-05-07T02:24:02;9.07;;;4.60;;
69937;SDS011;57248;47.320;15.998;2023-05-07T02:26:34;7.75;;;4.15;;
69937;SDS011;57248;47.320;15.998;2023-05-07T02:29:06;8.50;;;4.80;;
69937;SDS011;57248;47.320;15.998;2023-05-07T02:31:39;8.68;;;5.15;;
69937;SDS011;57248;47.320;15.998;2023-05-07T02:34:05;8.40;;;5.10;;
69937;SDS011;57248;47.320;15.998;2023-05-07T02:36:37;8.80;;;4.75;;
69937;SDS011;57248;47.320;15.998;2023-05-07T02:39:12;9.60;;;5.15;;
69937;SDS011;57248;47.320;15.998;2023-05-07T02:41:45;9.38;;;5.13;;
69937;SDS011;57248;47.320;15.998;2023-05-07T02:44:10;9.03;;;4.43;;
69937;SDS011;57248;47.320;15.998;2023-05-07T02:46:45;9.63;;;4.53;;
69937;SDS011;57248;47.320;15.998;2023-05-07T02:49:17;7.80;;;3.90;;
69937;SDS011;57248;47.320;15.998;2023-05-07T02:51:49;6.20;;;3.20;;
69937;SDS011;57248;47.320;15.998;2023-05-07T02:54:23;7.13;;;3.47;;
69937;SDS011;57248;47.320;15.998;2023-05-07T02:56:55;7.10;;;3.63;;
69937;SDS011;57248;47.320;15.998;2023-05-07T02:59:27;7.35;;;3.63;;
69937;SDS011;57248;47.320;15.998;2023-05-07T03:01:59;7.45;;;3.75;;
69937;SDS011;57248;47.320;15.998;2023-05-07T03:04:31;9.03;;;4.27;;
69937;SDS011;57248;47.320;15.998;2023-05-07T03:07:03;8.02;;;3.97;;
69937;SDS011;57248;47.320;15.998;2023-05-07T03:09:35;8.15;;;4.10;;
69937;SDS011;57248;47.320;15.998;2023-05-07T03:12:07;7.88;;;4.10;;
69937;SDS011;57248;47.320;15.998;2023-05-07T03:14:53;7.60;;;4.13;;
69937;SDS011;57248;47.320;15.998;2023-05-07T03:17:25;7.30;;;4.30;;
69937;SDS011;57248;47.320;15.998;2023-05-07T03:19:57;7.82;;;4.15;;
69937;SDS011;57248;47.320;15.998;2023-05-07T03:22:23;8.55;;;3.83;;
69937;SDS011;57248;47.320;15.998;2023-05-07T03:24:55;7.65;;;3.78;;
69937;SDS011;57248;47.320;15.998;2023-05-07T03:27:20;8.17;;;4.20;;
69937;SDS011;57248;47.320;15.998;2023-05-07T03:29:53;7.88;;;4.07;;
69937;SDS011;57248;47.320;15.998;2023-05-07T03:32:25;8.38;;;4.22;;
69937;SDS011;57248;47.320;15.998;2023-05-07T03:34:57;9.10;;;4.13;;
69937;SDS011;57248;47.320;15.998;2023-05-07T03:37:30;8.63;;;3.90;;
69937;SDS011;57248;47.320;15.998;2023-05-07T03:40:03;7.82;;;4.22;;
69937;SDS011;57248;47.320;15.998;2023-05-07T03:42:42;7.85;;;4.18;;
69937;SDS011;57248;47.320;15.998;2023-05-07T03:45:15;7.72;;;4.43;;
69937;SDS011;57248;47.320;15.998;2023-05-07T03:47:56;9.23;;;4.20;;
69937;SDS011;57248;47.320;15.998;2023-05-07T03:50:28;8.50;;;4.15;;
69937;SDS011;57248;47.320;15.998;2023-05-07T03:53:00;7.85;;;3.95;;
69937;SDS011;57248;47.320;15.998;2023-05-07T03:55:37;8.30;;;4.07;;
69937;SDS011;57248;47.320;15.998;2023-05-07T03:58:09;8.32;;;4.20;;
69937;SDS011;57248;47.320;15.998;2023-05-07T04:00:41;7.57;;;4.30;;
69937;SDS011;57248;47.320;15.998;2023-05-07T04:03:22;8.30;;;3.83;;
69937;SDS011;57248;47.320;15.998;2023-05-07T04:05:57;7.72;;;4.13;;
69937;SDS011;57248;47.320;15.998;2023-05-07T04:08:31;7.80;;;4.10;;
69937;SDS011;57248;47.320;15.998;2023-05-07T04:11:04;8.00;;;3.97;;
69937;SDS011;57248;47.320;15.998;2023-05-07T04:13:36;7.13;;;3.73;;
69937;SDS011;57248;47.320;15.998;2023-05-07T04:16:19;7.00;;;4.10;;
69937;SDS011;57248;47.320;15.998;2023-05-07T04:18:51;8.07;;;4.20;;
69937;SDS011;57248;47.320;15.998;2023-05-07T04:21:23;8.40;;;4.28;;
69937;SDS011;57248;47.320;15.998;2023-05-07T04:23:57;10.40;;;4.63;;
69937;SDS011;57248;47.320;15.998;2023-05-07T04:26:28;8.67;;;4.30;;
69937;SDS011;57248;47.320;15.998;2023-05-07T04:29:00;8.57;;;4.90;;
69937;SDS011;57248;47.320;15.998;2023-05-07T04:31:33;8.27;;;4.75;;
69937;SDS011;57248;47.320;15.998;2023-05-07T04:34:05;8.65;;;5.25;;
69937;SDS011;57248;47.320;15.998;2023-05-07T04:36:31;7.53;;;4.17;;
69937;SDS011;57248;47.320;15.998;2023-05-07T04:39:09;8.82;;;5.53;;
69937;SDS011;57248;47.320;15.998;2023-05-07T04:41:45;9.73;;;6.15;;
69937;SDS011;57248;47.320;15.998;2023-05-07T04:44:17;9.15;;;5.50;;
69937;SDS011;57248;47.320;15.998;2023-05-07T04:46:53;8.88;;;5.80;;
69937;SDS011;57248;47.320;15.998;2023-05-07T04:49:25;7.47;;;4.23;;
69937;SDS011;57248;47.320;15.998;2023-05-07T04:51:57;10.32;;;4.93;;
69937;SDS011;57248;47.320;15.998;2023-05-07T04:54:29;7.78;;;4.20;;
69937;SDS011;57248;47.320;15.998;2023-05-07T04:57:03;7.97;;;4.70;;
69937;SDS011;57248;47.320;15.998;2023-05-07T04:59:36;8.05;;;4.40;;
69937;SDS011;57248;47.320;15.998;2023-05-07T05:02:10;7.37;;;4.03;;
69937;SDS011;57248;47.320;15.998;2023-05-07T05:04:42;6.45;;;4.05;;
69937;SDS011;57248;47.320;15.998;2023-05-07T05:07:14;8.73;;;5.18;;
69937;SDS011;57248;47.320;15.998;2023-05-07T05:09:46;9.73;;;5.78;;
69937;SDS011;57248;47.320;15.998;2023-05-07T05:12:25;9.98;;;5.90;;
69937;SDS011;57248;47.320;15.998;2023-05-07T05:14:59;8.20;;;3.87;;
69937;SDS011;57248;47.320;15.998;2023-05-07T05:17:31;6.93;;;4.10;;
69937;SDS011;57248;47.320;15.998;2023-05-07T05:19:59;6.07;;;3.60;;
69937;SDS011;57248;47.320;15.998;2023-05-07T05:22:31;6.60;;;3.80;;
69937;SDS011;57248;47.320;15.998;2023-05-07T05:25:05;7.65;;;3.72;;
69937;SDS011;57248;47.320;15.998;2023-05-07T05:27:37;6.67;;;3.60;;
69937;SDS011;57248;47.320;15.998;2023-05-07T05:30:10;6.45;;;3.60;;
69937;SDS011;57248;47.320;15.998;2023-05-07T05:32:37;6.70;;;3.72;;
69937;SDS011;57248;47.320;15.998;2023-05-07T05:35:09;6.65;;;4.07;;
69937;SDS011;57248;47.320;15.998;2023-05-07T05:37:42;6.93;;;4.20;;
69937;SDS011;57248;47.320;15.998;2023-05-07T05:40:15;6.33;;;4.20;;
69937;SDS011;57248;47.320;15.998;2023-05-07T05:42:47;6.50;;;3.88;;
69937;SDS011;57248;47.320;15.998;2023-05-07T05:45:19;6.40;;;3.80;;
69937;SDS011;57248;47.320;15.998;2023-05-07T05:47:51;6.15;;;3.90;;
69937;SDS011;57248;47.320;15.998;2023-05-07T05:50:23;6.80;;;3.90;;
69937;SDS011;57248;47.320;15.998;2023-05-07T05:52:51;5.70;;;3.63;;
69937;SDS011;57248;47.320;15.998;2023-05-07T05:55:24;5.38;;;3.20;;
69937;SDS011;57248;47.320;15.998;2023-05-07T05:57:56;5.75;;;3.10;;
69937;SDS011;57248;47.320;15.998;2023-05-07T06:00:31;5.47;;;2.67;;
69937;SDS011;57248;47.320;15.998;2023-05-07T06:03:05;4.35;;;2.15;;
69937;SDS011;57248;47.320;15.998;2023-05-07T06:05:30;3.73;;;2.00;;
69937;SDS011;57248;47.320;15.998;2023-05-07T06:08:02;3.85;;;2.03;;
69937;SDS011;57248;47.320;15.998;2023-05-07T06:10:37;3.90;;;2.10;;
69937;SDS011;57248;47.320;15.998;2023-05-07T06:13:09;3.80;;;2.00;;
69937;SDS011;57248;47.320;15.998;2023-05-07T06:15:56;3.75;;;1.90;;
69937;SDS011;57248;47.320;15.998;2023-05-07T06:18:28;3.63;;;1.80;;
69937;SDS011;57248;47.320;15.998;2023-05-07T06:21:02;5.28;;;2.30;;
69937;SDS011;57248;47.320;15.998;2023-05-07T06:23:34;4.38;;;2.10;;
69937;SDS011;57248;47.320;15.998;2023-05-07T06:26:07;3.67;;;1.97;;
69937;SDS011;57248;47.320;15.998;2023-05-07T06:28:42;4.22;;;1.80;;
69937;SDS011;57248;47.320;15.998;2023-05-07T06:31:17;3.72;;;1.70;;
69937;SDS011;57248;47.320;15.998;2023-05-07T06:33:58;4.13;;;1.73;;
69937;SDS011;57248;47.320;15.998;2023-05-07T06:36:34;4.63;;;1.90;;
69937;SDS011;57248;47.320;15.998;2023-05-07T06:39:15;3.10;;;1.80;;
69937;SDS011;57248;47.320;15.998;2023-05-07T06:41:47;3.30;;;1.92;;
69937;SDS011;57248;47.320;15.998;2023-05-07T06:44:25;3.17;;;1.75;;
69937;SDS011;57248;47.320;15.998;2023-05-07T06:47:03;3.45;;;1.80;;
69937;SDS011;57248;47.320;15.998;2023-05-07T06:49:38;3.00;;;1.70;;
69937;SDS011;57248;47.320;15.998;2023-05-07T06:52:13;3.23;;;1.60;;
69937;SDS011;57248;47.320;15.998;2023-05-07T06:54:47;3.78;;;2.03;;
69937;SDS011;57248;47.320;15.998;2023-05-07T06:57:21;3.60;;;1.80;;
69937;SDS011;57248;47.320;15.998;2023-05-07T06:59:47;3.50;;;2.00;;
69937;SDS011;57248;47.320;15.998;2023-05-07T07:02:20;2.90;;;1.80;;
69937;SDS011;57248;47.320;15.998;2023-05-07T07:04:53;3.42;;;2.00;;
69937;SDS011;57248;47.320;15.998;2023-05-07T07:07:26;3.53;;;1.92;;
69937;SDS011;57248;47.320;15.998;2023-05-07T07:09:58;3.25;;;2.20;;
69937;SDS011;57248;47.320;15.998;2023-05-07T07:12:30;3.17;;;2.30;;
69937;SDS011;57248;47.320;15.998;2023-05-07T07:15:02;3.22;;;2.30;;
69937;SDS011;57248;47.320;15.998;2023-05-07T07:17:41;8.48;;;2.30;;
69937;SDS011;57248;47.320;15.998;2023-05-07T07:20:14;4.20;;;2.25;;
69937;SDS011;57248;47.320;15.998;2023-05-07T07:22:46;3.63;;;2.08;;
69937;SDS011;57248;47.320;15.998;2023-05-07T07:25:18;3.20;;;2.40;;
69937;SDS011;57248;47.320;15.998;2023-05-07T07:27:51;3.53;;;2.53;;
69937;SDS011;57248;47.320;15.998;2023-05-07T07:30:24;3.92;;;3.40;;
69937;SDS011;57248;47.320;15.998;2023-05-07T07:32:57;3.80;;;3.20;;
69937;SDS011;57248;47.320;15.998;2023-05-07T07:35:35;3.75;;;3.10;;
69937;SDS011;57248;47.320;15.998;2023-05-07T07:38:07;4.53;;;3.27;;
69937;SDS011;57248;47.320;15.998;2023-05-07T07:40:39;4.63;;;3.83;;
69937;SDS011;57248;47.320;15.998;2023-05-07T07:43:11;5.43;;;5.00;;
69937;SDS011;57248;47.320;15.998;2023-05-07T07:45:43;5.13;;;4.63;;
69937;SDS011;57248;47.320;15.998;2023-05-07T07:48:16;5.63;;;5.13;;
69937;SDS011;57248;47.320;15.998;2023-05-07T07:50:49;5.90;;;5.30;;
69937;SDS011;57248;47.320;15.998;2023-05-07T07:53:22;3.92;;;3.03;;
69937;SDS011;57248;47.320;15.998;2023-05-07T07:55:55;4.18;;;2.60;;
69937;SDS011;57248;47.320;15.998;2023-05-07T07:58:22;3.53;;;2.40;;
69937;SDS011;57248;47.320;15.998;2023-05-07T08:00:57;3.80;;;2.70;;
69937;SDS011;57248;47.320;15.998;2023-05-07T08:03:29;3.37;;;2.40;;
69937;SDS011;57248;47.320;15.998;2023-05-07T08:06:03;3.50;;;2.92;;
69937;SDS011;57248;47.320;15.998;2023-05-07T08:08:32;5.20;;;4.72;;
69937;SDS011;57248;47.320;15.998;2023-05-07T08:11:05;3.60;;;3.17;;
69937;SDS011;57248;47.320;15.998;2023-05-07T08:13:45;4.93;;;4.43;;
69937;SDS011;57248;47.320;15.998;2023-05-07T08:16:26;4.20;;;3.40;;
69937;SDS011;57248;47.320;15.998;2023-05-07T08:18:59;4.93;;;4.35;;
69937;SDS011;57248;47.320;15.998;2023-05-07T08:21:31;6.45;;;5.90;;
69937;SDS011;57248;47.320;15.998;2023-05-07T08:24:03;6.43;;;5.93;;
69937;SDS011;57248;47.320;15.998;2023-05-07T08:26:36;7.75;;;7.15;;
69937;SDS011;57248;47.320;15.998;2023-05-07T08:29:12;7.60;;;7.10;;
69937;SDS011;57248;47.320;15.998;2023-05-07T08:31:45;4.45;;;4.05;;
69937;SDS011;57248;47.320;15.998;2023-05-07T08:34:18;3.85;;;3.50;;
69937;SDS011;57248;47.320;15.998;2023-05-07T08:36:52;3.85;;;2.85;;
69937;SDS011;57248;47.320;15.998;2023-05-07T08:39:25;3.35;;;2.50;;
69937;SDS011;57248;47.320;15.998;2023-05-07T08:41:57;3.20;;;2.30;;
69937;SDS011;57248;47.320;15.998;2023-05-07T08:44:34;3.80;;;2.60;;
69937;SDS011;57248;47.320;15.998;2023-05-07T08:47:07;3.22;;;2.85;;
69937;SDS011;57248;47.320;15.998;2023-05-07T08:49:40;3.30;;;2.60;;
69937;SDS011;57248;47.320;15.998;2023-05-07T08:52:13;4.35;;;2.50;;
69937;SDS011;57248;47.320;15.998;2023-05-07T08:54:45;3.20;;;2.63;;
69937;SDS011;57248;47.320;15.998;2023-05-07T08:57:18;4.95;;;2.75;;
69937;SDS011;57248;47.320;15.998;2023-05-07T08:59:52;4.95;;;2.92;;
69937;SDS011;57248;47.320;15.998;2023-05-07T09:02:24;4.53;;;3.00;;
69937;SDS011;57248;47.320;15.998;2023-05-07T09:04:57;3.90;;;2.70;;
69937;SDS011;57248;47.320;15.998;2023-05-07T09:07:30;4.87;;;3.13;;
69937;SDS011;57248;47.320;15.998;2023-05-07T09:10:05;4.45;;;3.75;;
69937;SDS011;57248;47.320;15.998;2023-05-07T09:12:39;3.95;;;2.60;;
69937;SDS011;57248;47.320;15.998;2023-05-07T09:15:19;3.75;;;2.20;;
69937;SDS011;57248;47.320;15.998;2023-05-07T09:17:53;3.72;;;2.38;;
69937;SDS011;57248;47.320;15.998;2023-05-07T09:20:25;3.27;;;2.37;;
69937;SDS011;57248;47.320;15.998;2023-05-07T09:22:58;3.97;;;2.10;;
69937;SDS011;57248;47.320;15.998;2023-05-07T09:25:31;4.47;;;2.65;;
69937;SDS011;57248;47.320;15.998;2023-05-07T09:28:10;3.45;;;2.50;;
69937;SDS011;57248;47.320;15.998;2023-05-07T09:30:43;3.13;;;2.40;;
69937;SDS011;57248;47.320;15.998;2023-05-07T09:33:16;3.73;;;2.40;;
69937;SDS011;57248;47.320;15.998;2023-05-07T09:35:51;4.05;;;2.30;;
69937;SDS011;57248;47.320;15.998;2023-05-07T09:38:24;3.60;;;2.10;;
69937;SDS011;57248;47.320;15.998;2023-05-07T09:41:07;4.40;;;2.63;;
69937;SDS011;57248;47.320;15.998;2023-05-07T09:43:54;4.20;;;2.70;;
69937;SDS011;57248;47.320;15.998;2023-05-07T09:46:34;4.23;;;2.70;;
69937;SDS011;57248;47.320;15.998;2023-05-07T09:49:18;3.80;;;2.30;;
69937;SDS011;57248;47.320;15.998;2023-05-07T09:52:00;4.28;;;2.58;;
69937;SDS011;57248;47.320;15.998;2023-05-07T09:54:36;4.65;;;2.20;;
69937;SDS011;57248;47.320;15.998;2023-05-07T09:57:11;3.70;;;2.30;;
69937;SDS011;57248;47.320;15.998;2023-05-07T09:59:47;4.87;;;2.57;;
69937;SDS011;57248;47.320;15.998;2023-05-07T10:02:20;4.45;;;2.97;;
69937;SDS011;57248;47.320;15.998;2023-05-07T10:04:54;4.55;;;2.70;;
69937;SDS011;57248;47.320;15.998;2023-05-07T10:07:32;5.90;;;3.40;;
69937;SDS011;57248;47.320;15.998;2023-05-07T10:10:04;6.03;;;3.40;;
69937;SDS011;57248;47.320;15.998;2023-05-07T10:12:41;5.50;;;2.90;;
69937;SDS011;57248;47.320;15.998;2023-05-07T10:15:21;4.93;;;3.00;;
69937;SDS011;57248;47.320;15.998;2023-05-07T10:18:04;6.32;;;3.80;;
69937;SDS011;57248;47.320;15.998;2023-05-07T10:20:40;8.20;;;3.60;;
69937;SDS011;57248;47.320;15.998;2023-05-07T10:23:20;4.93;;;3.50;;
69937;SDS011;57248;47.320;15.998;2023-05-07T10:25:58;6.33;;;3.80;;
69937;SDS011;57248;47.320;15.998;2023-05-07T10:28:36;4.65;;;3.78;;
69937;SDS011;57248;47.320;15.998;2023-05-07T10:34:33;5.28;;;3.85;;
69937;SDS011;57248;47.320;15.998;2023-05-07T10:37:09;6.85;;;3.85;;
69937;SDS011;57248;47.320;15.998;2023-05-07T10:39:43;4.57;;;3.40;;
69937;SDS011;57248;47.320;15.998;2023-05-07T10:42:20;5.32;;;3.47;;
69937;SDS011;57248;47.320;15.998;2023-05-07T10:44:55;5.80;;;3.60;;
69937;SDS011;57248;47.320;15.998;2023-05-07T10:47:29;5.00;;;3.50;;
69937;SDS011;57248;47.320;15.998;2023-05-07T10:52:39;4.70;;;3.13;;
69937;SDS011;57248;47.320;15.998;2023-05-07T10:57:57;62.88;;;28.45;;
69937;SDS011;57248;47.320;15.998;2023-05-07T11:01:09;8.10;;;5.10;;
69937;SDS011;57248;47.320;15.998;2023-05-07T11:10:05;6.70;;;4.80;;
69937;SDS011;57248;47.320;15.998;2023-05-07T11:12:54;7.35;;;4.70;;
69937;SDS011;57248;47.320;15.998;2023-05-07T11:15:46;6.57;;;4.53;;
69937;SDS011;57248;47.320;15.998;2023-05-07T11:18:45;7.40;;;4.72;;
69937;SDS011;57248;47.320;15.998;2023-05-07T11:21:33;6.30;;;4.30;;
69937;SDS011;57248;47.320;15.998;2023-05-07T11:24:38;6.90;;;4.40;;
69937;SDS011;57248;47.320;15.998;2023-05-07T11:27:13;7.32;;;4.65;;
69937;SDS011;57248;47.320;15.998;2023-05-07T11:29:55;7.30;;;4.40;;
69937;SDS011;57248;47.320;15.998;2023-05-07T11:32:31;8.95;;;4.78;;
69937;SDS011;57248;47.320;15.998;2023-05-07T11:35:03;7.53;;;5.13;;
69937;SDS011;57248;47.320;15.998;2023-05-07T11:37:37;7.70;;;5.20;;
69937;SDS011;57248;47.320;15.998;2023-05-07T11:40:05;7.22;;;5.10;;
69937;SDS011;57248;47.320;15.998;2023-05-07T11:42:38;8.50;;;5.07;;
69937;SDS011;57248;47.320;15.998;2023-05-07T11:45:11;7.25;;;5.18;;
69937;SDS011;57248;47.320;15.998;2023-05-07T11:47:43;8.77;;;5.60;;
69937;SDS011;57248;47.320;15.998;2023-05-07T11:50:16;7.32;;;5.35;;
69937;SDS011;57248;47.320;15.998;2023-05-07T11:52:51;7.28;;;4.80;;
69937;SDS011;57248;47.320;15.998;2023-05-07T11:55:25;10.50;;;5.80;;
69937;SDS011;57248;47.320;15.998;2023-05-07T11:57:51;11.85;;;6.65;;
69937;SDS011;57248;47.320;15.998;2023-05-07T12:00:23;10.00;;;6.37;;
69937;SDS011;57248;47.320;15.998;2023-05-07T12:02:50;9.65;;;6.90;;
69937;SDS011;57248;47.320;15.998;2023-05-07T12:05:21;9.10;;;7.13;;
69937;SDS011;57248;47.320;15.998;2023-05-07T12:07:55;9.32;;;7.07;;
69937;SDS011;57248;47.320;15.998;2023-05-07T12:10:28;9.75;;;7.05;;
69937;SDS011;57248;47.320;15.998;2023-05-07T12:13:00;11.67;;;7.17;;
69937;SDS011;57248;47.320;15.998;2023-05-07T12:15:50;11.18;;;7.28;;
69937;SDS011;57248;47.320;15.998;2023-05-07T12:18:26;10.00;;;7.63;;
69937;SDS011;57248;47.320;15.998;2023-05-07T12:20:59;11.48;;;7.30;;
69937;SDS011;57248;47.320;15.998;2023-05-07T12:23:31;11.70;;;7.55;;
69937;SDS011;57248;47.320;15.998;2023-05-07T12:26:04;11.27;;;7.20;;
69937;SDS011;57248;47.320;15.998;2023-05-07T12:28:38;11.90;;;7.10;;
69937;SDS011;57248;47.320;15.998;2023-05-07T12:31:10;10.90;;;7.68;;
69937;SDS011;57248;47.320;15.998;2023-05-07T12:33:42;11.40;;;7.60;;
69937;SDS011;57248;47.320;15.998;2023-05-07T12:36:16;12.02;;;7.82;;
69937;SDS011;57248;47.320;15.998;2023-05-07T12:38:51;11.03;;;7.70;;
69937;SDS011;57248;47.320;15.998;2023-05-07T12:41:26;9.90;;;7.53;;
69937;SDS011;57248;47.320;15.998;2023-05-07T12:44:00;13.05;;;8.27;;
69937;SDS011;57248;47.320;15.998;2023-05-07T12:46:38;13.57;;;8.40;;
69937;SDS011;57248;47.320;15.998;2023-05-07T12:49:10;13.18;;;8.50;;
69937;SDS011;57248;47.320;15.998;2023-05-07T12:51:43;11.60;;;8.10;;
69937;SDS011;57248;47.320;15.998;2023-05-07T12:54:31;14.43;;;8.43;;
69937;SDS011;57248;47.320;15.998;2023-05-07T12:57:06;15.18;;;8.48;;
69937;SDS011;57248;47.320;15.998;2023-05-07T12:59:42;13.48;;;8.32;;
69937;SDS011;57248;47.320;15.998;2023-05-07T13:02:13;14.57;;;8.82;;
69937;SDS011;57248;47.320;15.998;2023-05-07T13:04:46;13.93;;;8.57;;
69937;SDS011;57248;47.320;15.998;2023-05-07T13:07:20;11.65;;;8.07;;
69937;SDS011;57248;47.320;15.998;2023-05-07T13:09:57;13.80;;;8.70;;
69937;SDS011;57248;47.320;15.998;2023-05-07T13:12:29;14.90;;;9.23;;
69937;SDS011;57248;47.320;15.998;2023-05-07T13:15:01;15.60;;;9.50;;
69937;SDS011;57248;47.320;15.998;2023-05-07T13:17:48;14.03;;;9.20;;
69937;SDS011;57248;47.320;15.998;2023-05-07T13:20:21;12.15;;;6.53;;
69937;SDS011;57248;47.320;15.998;2023-05-07T13:22:54;9.75;;;5.80;;
69937;SDS011;57248;47.320;15.998;2023-05-07T13:25:27;12.20;;;6.10;;
69937;SDS011;57248;47.320;15.998;2023-05-07T13:27:58;10.77;;;6.32;;
69937;SDS011;57248;47.320;15.998;2023-05-07T13:30:30;11.10;;;6.80;;
69937;SDS011;57248;47.320;15.998;2023-05-07T13:33:02;11.23;;;7.63;;
69937;SDS011;57248;47.320;15.998;2023-05-07T13:35:34;11.45;;;7.10;;
69937;SDS011;57248;47.320;15.998;2023-05-07T13:38:07;12.70;;;7.22;;
69937;SDS011;57248;47.320;15.998;2023-05-07T13:40:39;11.63;;;8.32;;
69937;SDS011;57248;47.320;15.998;2023-05-07T13:43:11;10.80;;;7.53;;
69937;SDS011;57248;47.320;15.998;2023-05-07T13:45:43;12.13;;;8.18;;
69937;SDS011;57248;47.320;15.998;2023-05-07T13:48:22;14.00;;;9.00;;
69937;SDS011;57248;47.320;15.998;2023-05-07T13:50:54;12.50;;;8.90;;
69937;SDS011;57248;47.320;15.998;2023-05-07T13:53:26;11.52;;;7.80;;
69937;SDS011;57248;47.320;15.998;2023-05-07T13:55:58;13.07;;;8.43;;
69937;SDS011;57248;47.320;15.998;2023-05-07T13:58:31;12.07;;;8.55;;
69937;SDS011;57248;47.320;15.998;2023-05-07T14:01:03;11.60;;;8.60;;
69937;SDS011;57248;47.320;15.998;2023-05-07T14:03:37;11.52;;;8.10;;
69937;SDS011;57248;47.320;15.998;2023-05-07T14:06:11;12.00;;;8.70;;
69937;SDS011;57248;47.320;15.998;2023-05-07T14:08:43;12.80;;;8.63;;
69937;SDS011;57248;47.320;15.998;2023-05-07T14:11:17;10.70;;;8.30;;
69937;SDS011;57248;47.320;15.998;2023-05-07T14:13:59;11.95;;;8.73;;
69937;SDS011;57248;47.320;15.998;2023-05-07T14:16:32;13.95;;;9.93;;
69937;SDS011;57248;47.320;15.998;2023-05-07T14:19:12;11.98;;;8.75;;
69937;SDS011;57248;47.320;15.998;2023-05-07T14:21:44;13.47;;;9.97;;
69937;SDS011;57248;47.320;15.998;2023-05-07T14:24:16;12.80;;;9.20;;
69937;SDS011;57248;47.320;15.998;2023-05-07T14:26:43;13.98;;;10.48;;
69937;SDS011;57248;47.320;15.998;2023-05-07T14:29:16;14.98;;;10.50;;
69937;SDS011;57248;47.320;15.998;2023-05-07T14:31:50;13.35;;;10.00;;
69937;SDS011;57248;47.320;15.998;2023-05-07T14:34:22;13.77;;;9.63;;
69937;SDS011;57248;47.320;15.998;2023-05-07T14:36:48;12.63;;;9.25;;
69937;SDS011;57248;47.320;15.998;2023-05-07T14:39:19;12.55;;;9.27;;
69937;SDS011;57248;47.320;15.998;2023-05-07T14:41:53;13.33;;;8.77;;
69937;SDS011;57248;47.320;15.998;2023-05-07T14:44:20;13.52;;;9.23;;
69937;SDS011;57248;47.320;15.998;2023-05-07T14:46:52;14.48;;;9.65;;
69937;SDS011;57248;47.320;15.998;2023-05-07T14:49:24;14.10;;;9.48;;
69937;SDS011;57248;47.320;15.998;2023-05-07T14:51:57;14.63;;;10.00;;
69937;SDS011;57248;47.320;15.998;2023-05-07T14:54:36;13.50;;;8.73;;
69937;SDS011;57248;47.320;15.998;2023-05-07T14:57:10;11.45;;;7.93;;
69937;SDS011;57248;47.320;15.998;2023-05-07T14:59:44;11.00;;;7.80;;
69937;SDS011;57248;47.320;15.998;2023-05-07T15:02:18;11.63;;;7.68;;
69937;SDS011;57248;47.320;15.998;2023-05-07T15:04:49;12.45;;;8.52;;
69937;SDS011;57248;47.320;15.998;2023-05-07T15:07:22;13.43;;;8.27;;
69937;SDS011;57248;47.320;15.998;2023-05-07T15:09:54;10.80;;;7.28;;
69937;SDS011;57248;47.320;15.998;2023-05-07T15:12:26;9.75;;;6.90;;
69937;SDS011;57248;47.320;15.998;2023-05-07T15:14:52;10.00;;;6.95;;
69937;SDS011;57248;47.320;15.998;2023-05-07T15:17:31;12.27;;;7.70;;
69937;SDS011;57248;47.320;15.998;2023-05-07T15:20:04;11.13;;;7.23;;
69937;SDS011;57248;47.320;15.998;2023-05-07T15:22:37;10.38;;;7.07;;
69937;SDS011;57248;47.320;15.998;2023-05-07T15:25:09;10.52;;;6.72;;